sensor_id;sensor_type;location;lat;lon;timestamp;temperature;humidity
3684;DHT22;1858;48.716;9.648;2023-04-24T00:01:15;12.60;99.90
3684;DHT22;1858;48.716;9.648;2023-04-24T00:03:46;12.60;99.90
3684;DHT22;1858;48.716;9.648;2023-04-24T00:06:15;12.50;99.90
3684;DHT22;1858;48.716;9.648;2023-04-24T00:08:44;12.40;99.90
3684;DHT22;1858;48.716;9.648;2023-04-24T00:11:13;12.40;99.90
3684;DHT22;1858;48.716;9.648;2023-04-24T00:13:41;12.40;1.00
3684;DHT22;1858;48.716;9.648;2023-04-24T00:16:09;12.40;1.00
3684;DHT22;1858;48.716;9.648;2023-04-24T00:18:38;12.30;1.00
3684;DHT22;1858;48.716;9.648;2023-04-24T00:21:07;12.30;1.00
3684;DHT22;1858;48.716;9.648;2023-04-24T00:23:35;12.30;1.00
3684;DHT22;1858;48.716;9.648;2023-04-24T00:26:03;12.30;1.00
3684;DHT22;1858;48.716;9.648;2023-04-24T00:28:51;12.30;1.00
3684;DHT22;1858;48.716;9.648;2023-04-24T00:31:20;12.30;1.00
3684;DHT22;1858;48.716;9.648;2023-04-24T00:33:48;12.40;1.00
3684;DHT22;1858;48.716;9.648;2023-04-24T00:36:16;12.30;1.00
3684;DHT22;1858;48.716;9.648;2023-04-24T00:38:46;12.40;1.00
3684;DHT22;1858;48.716;9.648;2023-04-24T00:41:15;12.40;1.00
3684;DHT22;1858;48.716;9.648;2023-04-24T00:43:43;12.40;1.00
3684;DHT22;1858;48.716;9.648;2023-04-24T00:46:13;12.40;1.00
3684;DHT22;1858;48.716;9.648;2023-04-24T00:48:42;12.40;1.00
3684;DHT22;1858;48.716;9.648;2023-04-24T00:51:30;12.30;1.00
3684;DHT22;1858;48.716;9.648;2023-04-24T00:54:19;12.30;1.00
3684;DHT22;1858;48.716;9.648;2023-04-24T00:56:56;12.30;1.00
3684;DHT22;1858;48.716;9.648;2023-04-24T00:59:25;12.40;1.00
3684;DHT22;1858;48.716;9.648;2023-04-24T01:01:54;12.40;1.00
3684;DHT22;1858;48.716;9.648;2023-04-24T01:04:24;12.40;1.00
3684;DHT22;1858;48.716;9.648;2023-04-24T01:06:55;12.40;1.00
3684;DHT22;1858;48.716;9.648;2023-04-24T01:09:24;12.30;1.00
3684;DHT22;1858;48.716;9.648;2023-04-24T01:11:53;12.20;1.00
3684;DHT22;1858;48.716;9.648;2023-04-24T01:14:22;12.20;1.00
3684;DHT22;1858;48.716;9.648;2023-04-24T01:16:51;12.20;1.00
3684;DHT22;1858;48.716;9.648;2023-04-24T01:19:20;12.20;1.00
3684;DHT22;1858;48.716;9.648;2023-04-24T01:21:50;12.10;1.00
3684;DHT22;1858;48.716;9.648;2023-04-24T01:24:20;12.10;1.00
3684;DHT22;1858;48.716;9.648;2023-04-24T01:26:48;12.10;1.00
3684;DHT22;1858;48.716;9.648;2023-04-24T01:29:17;12.10;1.00
3684;DHT22;1858;48.716;9.648;2023-04-24T01:31:45;12.10;1.00
3684;DHT22;1858;48.716;9.648;2023-04-24T01:34:14;12.10;1.00
3684;DHT22;1858;48.716;9.648;2023-04-24T01:36:46;12.10;1.00
3684;DHT22;1858;48.716;9.648;2023-04-24T01:39:14;12.00;1.00
3684;DHT22;1858;48.716;9.648;2023-04-24T01:41:44;12.10;1.00
3684;DHT22;1858;48.716;9.648;2023-04-24T01:44:12;12.10;1.00
3684;DHT22;1858;48.716;9.648;2023-04-24T01:46:40;12.10;1.00
3684;DHT22;1858;48.716;9.648;2023-04-24T01:49:09;12.10;1.00
3684;DHT22;1858;48.716;9.648;2023-04-24T01:51:38;12.10;1.00
3684;DHT22;1858;48.716;9.648;2023-04-24T01:54:06;12.10;1.00
3684;DHT22;1858;48.716;9.648;2023-04-24T01:56:35;12.10;1.00
3684;DHT22;1858;48.716;9.648;2023-04-24T01:59:04;12.10;1.00
3684;DHT22;1858;48.716;9.648;2023-04-24T02:04:25;12.10;1.00
3684;DHT22;1858;48.716;9.648;2023-04-24T02:06:54;12.10;1.00
3684;DHT22;1858;48.716;9.648;2023-04-24T02:09:22;12.10;1.00
3684;DHT22;1858;48.716;9.648;2023-04-24T02:11:51;12.10;1.00
3684;DHT22;1858;48.716;9.648;2023-04-24T02:14:19;12.10;1.00
3684;DHT22;1858;48.716;9.648;2023-04-24T02:16:50;12.10;1.00
3684;DHT22;1858;48.716;9.648;2023-04-24T02:19:18;12.10;1.00
3684;DHT22;1858;48.716;9.648;2023-04-24T02:21:47;12.10;1.00
3684;DHT22;1858;48.716;9.648;2023-04-24T02:24:34;12.10;1.00
3684;DHT22;1858;48.716;9.648;2023-04-24T02:27:03;12.10;1.00
3684;DHT22;1858;48.716;9.648;2023-04-24T02:29:31;12.10;1.00
3684;DHT22;1858;48.716;9.648;2023-04-24T02:32:00;12.10;1.00
3684;DHT22;1858;48.716;9.648;2023-04-24T02:34:28;12.10;1.00
3684;DHT22;1858;48.716;9.648;2023-04-24T02:36:56;12.00;1.00
3684;DHT22;1858;48.716;9.648;2023-04-24T02:39:44;12.00;1.00
3684;DHT22;1858;48.716;9.648;2023-04-24T02:42:13;11.90;1.00
3684;DHT22;1858;48.716;9.648;2023-04-24T02:44:41;11.90;1.00
3684;DHT22;1858;48.716;9.648;2023-04-24T02:47:10;11.90;1.00
3684;DHT22;1858;48.716;9.648;2023-04-24T02:49:38;11.90;1.00
3684;DHT22;1858;48.716;9.648;2023-04-24T02:52:06;11.80;1.00
3684;DHT22;1858;48.716;9.648;2023-04-24T02:54:35;11.90;1.00
3684;DHT22;1858;48.716;9.648;2023-04-24T02:57:04;11.90;1.00
3684;DHT22;1858;48.716;9.648;2023-04-24T02:59:33;11.90;1.00
3684;DHT22;1858;48.716;9.648;2023-04-24T03:02:01;11.90;1.00
3684;DHT22;1858;48.716;9.648;2023-04-24T03:04:30;12.00;1.00
3684;DHT22;1858;48.716;9.648;2023-04-24T03:06:59;11.90;1.00
3684;DHT22;1858;48.716;9.648;2023-04-24T03:09:28;11.90;1.00
3684;DHT22;1858;48.716;9.648;2023-04-24T03:11:56;11.90;1.00
3684;DHT22;1858;48.716;9.648;2023-04-24T03:14:25;11.80;1.00
3684;DHT22;1858;48.716;9.648;2023-04-24T03:16:54;11.80;1.00
3684;DHT22;1858;48.716;9.648;2023-04-24T03:19:23;11.80;1.00
3684;DHT22;1858;48.716;9.648;2023-04-24T03:21:51;11.80;1.00
3684;DHT22;1858;48.716;9.648;2023-04-24T03:24:19;11.80;1.00
3684;DHT22;1858;48.716;9.648;2023-04-24T03:26:48;11.80;1.00
3684;DHT22;1858;48.716;9.648;2023-04-24T03:29:16;11.80;1.00
3684;DHT22;1858;48.716;9.648;2023-04-24T03:31:44;11.80;1.00
3684;DHT22;1858;48.716;9.648;2023-04-24T03:34:32;11.80;1.00
3684;DHT22;1858;48.716;9.648;2023-04-24T03:37:00;11.80;1.00
3684;DHT22;1858;48.716;9.648;2023-04-24T03:39:29;11.80;1.00
3684;DHT22;1858;48.716;9.648;2023-04-24T03:41:57;11.80;1.00
3684;DHT22;1858;48.716;9.648;2023-04-24T03:44:45;11.90;1.00
3684;DHT22;1858;48.716;9.648;2023-04-24T03:47:13;11.90;1.00
3684;DHT22;1858;48.716;9.648;2023-04-24T03:49:42;11.90;1.00
3684;DHT22;1858;48.716;9.648;2023-04-24T03:52:10;11.90;1.00
3684;DHT22;1858;48.716;9.648;2023-04-24T03:54:39;12.00;1.00
3684;DHT22;1858;48.716;9.648;2023-04-24T03:57:07;12.00;1.00
3684;DHT22;1858;48.716;9.648;2023-04-24T03:59:36;12.00;1.00
3684;DHT22;1858;48.716;9.648;2023-04-24T04:02:04;12.00;1.00
3684;DHT22;1858;48.716;9.648;2023-04-24T04:04:32;12.00;1.00
3684;DHT22;1858;48.716;9.648;2023-04-24T04:07:01;12.00;1.00
3684;DHT22;1858;48.716;9.648;2023-04-24T04:09:30;12.00;1.00
3684;DHT22;1858;48.716;9.648;2023-04-24T04:11:58;12.00;1.00
3684;DHT22;1858;48.716;9.648;2023-04-24T04:14:31;12.00;1.00
3684;DHT22;1858;48.716;9.648;2023-04-24T04:17:01;12.00;1.00
3684;DHT22;1858;48.716;9.648;2023-04-24T04:19:30;11.90;1.00
3684;DHT22;1858;48.716;9.648;2023-04-24T04:22:00;11.90;1.00
3684;DHT22;1858;48.716;9.648;2023-04-24T04:24:29;11.90;1.00
3684;DHT22;1858;48.716;9.648;2023-04-24T04:26:58;11.90;1.00
3684;DHT22;1858;48.716;9.648;2023-04-24T04:29:46;11.90;1.00
3684;DHT22;1858;48.716;9.648;2023-04-24T04:32:03;11.90;1.00
3684;DHT22;1858;48.716;9.648;2023-04-24T04:34:33;11.90;1.00
3684;DHT22;1858;48.716;9.648;2023-04-24T04:37:06;11.80;1.00
3684;DHT22;1858;48.716;9.648;2023-04-24T04:39:41;11.80;1.00
3684;DHT22;1858;48.716;9.648;2023-04-24T04:42:10;11.80;1.00
3684;DHT22;1858;48.716;9.648;2023-04-24T04:44:39;11.80;1.00
3684;DHT22;1858;48.716;9.648;2023-04-24T04:47:08;11.80;1.00
3684;DHT22;1858;48.716;9.648;2023-04-24T04:49:38;11.80;1.00
3684;DHT22;1858;48.716;9.648;2023-04-24T04:52:07;11.80;1.00
3684;DHT22;1858;48.716;9.648;2023-04-24T04:54:39;11.80;1.00
3684;DHT22;1858;48.716;9.648;2023-04-24T04:57:14;11.90;1.00
3684;DHT22;1858;48.716;9.648;2023-04-24T04:59:45;11.90;1.00
3684;DHT22;1858;48.716;9.648;2023-04-24T05:02:13;12.00;1.00
3684;DHT22;1858;48.716;9.648;2023-04-24T05:04:42;12.00;1.00
3684;DHT22;1858;48.716;9.648;2023-04-24T05:07:10;12.10;1.00
3684;DHT22;1858;48.716;9.648;2023-04-24T05:09:44;12.10;1.00
3684;DHT22;1858;48.716;9.648;2023-04-24T05:12:15;11.90;1.00
3684;DHT22;1858;48.716;9.648;2023-04-24T05:14:44;11.90;1.00
3684;DHT22;1858;48.716;9.648;2023-04-24T05:17:17;11.90;1.00
3684;DHT22;1858;48.716;9.648;2023-04-24T05:19:46;11.80;1.00
3684;DHT22;1858;48.716;9.648;2023-04-24T05:22:15;11.70;1.00
3684;DHT22;1858;48.716;9.648;2023-04-24T05:24:54;11.60;1.00
3684;DHT22;1858;48.716;9.648;2023-04-24T05:27:22;11.40;99.90
3684;DHT22;1858;48.716;9.648;2023-04-24T05:29:51;11.20;1.00
3684;DHT22;1858;48.716;9.648;2023-04-24T05:32:20;11.20;1.00
3684;DHT22;1858;48.716;9.648;2023-04-24T05:34:51;11.20;1.00
3684;DHT22;1858;48.716;9.648;2023-04-24T05:37:20;11.10;1.00
3684;DHT22;1858;48.716;9.648;2023-04-24T05:39:49;11.20;1.00
3684;DHT22;1858;48.716;9.648;2023-04-24T05:42:19;11.10;1.00
3684;DHT22;1858;48.716;9.648;2023-04-24T05:44:52;11.10;1.00
3684;DHT22;1858;48.716;9.648;2023-04-24T05:47:22;11.10;1.00
3684;DHT22;1858;48.716;9.648;2023-04-24T05:49:50;11.10;1.00
3684;DHT22;1858;48.716;9.648;2023-04-24T05:52:25;11.10;1.00
3684;DHT22;1858;48.716;9.648;2023-04-24T05:54:56;11.00;1.00
3684;DHT22;1858;48.716;9.648;2023-04-24T05:57:29;11.00;1.00
3684;DHT22;1858;48.716;9.648;2023-04-24T05:59:56;11.00;1.00
3684;DHT22;1858;48.716;9.648;2023-04-24T06:02:25;11.00;1.00
3684;DHT22;1858;48.716;9.648;2023-04-24T06:04:55;11.00;1.00
3684;DHT22;1858;48.716;9.648;2023-04-24T06:07:25;11.10;1.00
3684;DHT22;1858;48.716;9.648;2023-04-24T06:09:54;11.20;1.00
3684;DHT22;1858;48.716;9.648;2023-04-24T06:12:24;11.20;1.00
3684;DHT22;1858;48.716;9.648;2023-04-24T06:14:56;11.30;1.00
3684;DHT22;1858;48.716;9.648;2023-04-24T06:17:26;11.40;1.00
3684;DHT22;1858;48.716;9.648;2023-04-24T06:19:55;11.50;99.90
3684;DHT22;1858;48.716;9.648;2023-04-24T06:22:28;11.50;99.90
3684;DHT22;1858;48.716;9.648;2023-04-24T06:27:52;11.60;99.90
3684;DHT22;1858;48.716;9.648;2023-04-24T06:30:24;11.70;99.90
3684;DHT22;1858;48.716;9.648;2023-04-24T06:32:54;11.70;99.90
3684;DHT22;1858;48.716;9.648;2023-04-24T06:35:23;11.80;99.90
3684;DHT22;1858;48.716;9.648;2023-04-24T06:37:55;11.80;99.90
3684;DHT22;1858;48.716;9.648;2023-04-24T06:40:43;11.90;99.90
3684;DHT22;1858;48.716;9.648;2023-04-24T06:43:06;12.00;99.90
3684;DHT22;1858;48.716;9.648;2023-04-24T06:45:33;12.20;99.90
3684;DHT22;1858;48.716;9.648;2023-04-24T06:48:02;12.30;99.90
3684;DHT22;1858;48.716;9.648;2023-04-24T06:50:30;12.60;99.90
3684;DHT22;1858;48.716;9.648;2023-04-24T06:52:59;12.80;99.90
3684;DHT22;1858;48.716;9.648;2023-04-24T06:55:28;13.00;99.90
3684;DHT22;1858;48.716;9.648;2023-04-24T06:58:00;13.20;99.90
3684;DHT22;1858;48.716;9.648;2023-04-24T07:00:30;14.30;99.90
3684;DHT22;1858;48.716;9.648;2023-04-24T07:02:58;15.90;1.00
3684;DHT22;1858;48.716;9.648;2023-04-24T07:05:27;17.80;1.00
3684;DHT22;1858;48.716;9.648;2023-04-24T07:07:56;19.40;1.00
3684;DHT22;1858;48.716;9.648;2023-04-24T07:10:27;20.80;99.90
3684;DHT22;1858;48.716;9.648;2023-04-24T07:12:56;22.00;99.90
3684;DHT22;1858;48.716;9.648;2023-04-24T07:15:27;23.10;99.90
3684;DHT22;1858;48.716;9.648;2023-04-24T07:18:02;24.10;99.90
3684;DHT22;1858;48.716;9.648;2023-04-24T07:20:40;25.00;99.90
3684;DHT22;1858;48.716;9.648;2023-04-24T07:23:13;25.80;99.90
3684;DHT22;1858;48.716;9.648;2023-04-24T07:25:54;26.50;99.90
3684;DHT22;1858;48.716;9.648;2023-04-24T07:28:17;27.30;99.90
3684;DHT22;1858;48.716;9.648;2023-04-24T07:30:52;27.90;99.90
3684;DHT22;1858;48.716;9.648;2023-04-24T07:33:17;28.10;99.90
3684;DHT22;1858;48.716;9.648;2023-04-24T07:35:45;27.30;99.90
3684;DHT22;1858;48.716;9.648;2023-04-24T07:38:16;26.60;99.90
3684;DHT22;1858;48.716;9.648;2023-04-24T07:40:48;25.70;99.90
3684;DHT22;1858;48.716;9.648;2023-04-24T07:43:20;24.80;99.90
3684;DHT22;1858;48.716;9.648;2023-04-24T07:45:58;23.80;99.90
3684;DHT22;1858;48.716;9.648;2023-04-24T07:48:27;22.40;99.90
3684;DHT22;1858;48.716;9.648;2023-04-24T07:51:15;21.70;99.90
3684;DHT22;1858;48.716;9.648;2023-04-24T07:53:45;21.20;99.90
3684;DHT22;1858;48.716;9.648;2023-04-24T07:56:14;20.30;99.90
3684;DHT22;1858;48.716;9.648;2023-04-24T07:58:50;19.60;99.90
3684;DHT22;1858;48.716;9.648;2023-04-24T08:01:22;19.00;99.90
3684;DHT22;1858;48.716;9.648;2023-04-24T08:03:51;18.50;99.90
3684;DHT22;1858;48.716;9.648;2023-04-24T08:06:23;17.70;99.90
3684;DHT22;1858;48.716;9.648;2023-04-24T08:08:54;17.20;99.90
3684;DHT22;1858;48.716;9.648;2023-04-24T08:11:23;16.50;99.90
3684;DHT22;1858;48.716;9.648;2023-04-24T08:13:52;15.10;99.90
3684;DHT22;1858;48.716;9.648;2023-04-24T08:16:22;14.50;99.90
3684;DHT22;1858;48.716;9.648;2023-04-24T08:18:53;14.00;99.90
3684;DHT22;1858;48.716;9.648;2023-04-24T08:21:22;13.90;99.90
3684;DHT22;1858;48.716;9.648;2023-04-24T08:23:56;13.80;99.90
3684;DHT22;1858;48.716;9.648;2023-04-24T08:26:25;14.10;1.00
3684;DHT22;1858;48.716;9.648;2023-04-24T08:28:59;15.20;1.00
3684;DHT22;1858;48.716;9.648;2023-04-24T08:31:26;16.70;1.00
3684;DHT22;1858;48.716;9.648;2023-04-24T08:33:55;17.50;99.90
3684;DHT22;1858;48.716;9.648;2023-04-24T08:36:23;18.30;99.90
3684;DHT22;1858;48.716;9.648;2023-04-24T08:38:53;20.00;99.90
3684;DHT22;1858;48.716;9.648;2023-04-24T08:41:22;21.70;99.90
3684;DHT22;1858;48.716;9.648;2023-04-24T08:43:53;23.40;99.90
3684;DHT22;1858;48.716;9.648;2023-04-24T08:46:25;23.40;99.90
3684;DHT22;1858;48.716;9.648;2023-04-24T08:48:54;22.00;99.90
3684;DHT22;1858;48.716;9.648;2023-04-24T08:51:24;21.10;99.90
3684;DHT22;1858;48.716;9.648;2023-04-24T08:53:56;20.00;99.90
3684;DHT22;1858;48.716;9.648;2023-04-24T08:56:27;19.00;99.90
3684;DHT22;1858;48.716;9.648;2023-04-24T08:59:00;18.30;99.90
3684;DHT22;1858;48.716;9.648;2023-04-24T09:01:29;17.50;99.90
3684;DHT22;1858;48.716;9.648;2023-04-24T09:04:03;17.30;99.90
3684;DHT22;1858;48.716;9.648;2023-04-24T09:06:33;16.90;99.90
3684;DHT22;1858;48.716;9.648;2023-04-24T09:09:10;16.40;99.90
3684;DHT22;1858;48.716;9.648;2023-04-24T09:11:40;16.10;99.90
3684;DHT22;1858;48.716;9.648;2023-04-24T09:14:13;17.40;99.90
3684;DHT22;1858;48.716;9.648;2023-04-24T09:16:50;18.50;99.90
3684;DHT22;1858;48.716;9.648;2023-04-24T09:19:17;18.40;99.90
3684;DHT22;1858;48.716;9.648;2023-04-24T09:21:49;18.40;99.90
3684;DHT22;1858;48.716;9.648;2023-04-24T09:24:22;19.60;99.90
3684;DHT22;1858;48.716;9.648;2023-04-24T09:26:58;20.30;99.90
3684;DHT22;1858;48.716;9.648;2023-04-24T09:29:28;21.00;99.90
3684;DHT22;1858;48.716;9.648;2023-04-24T09:32:20;21.50;99.90
3684;DHT22;1858;48.716;9.648;2023-04-24T09:35:11;22.30;99.90
3684;DHT22;1858;48.716;9.648;2023-04-24T09:37:42;23.10;99.90
3684;DHT22;1858;48.716;9.648;2023-04-24T09:40:15;23.70;99.90
3684;DHT22;1858;48.716;9.648;2023-04-24T09:45:43;21.80;99.90
3684;DHT22;1858;48.716;9.648;2023-04-24T09:48:12;20.80;99.90
3684;DHT22;1858;48.716;9.648;2023-04-24T09:53:36;19.70;99.90
3684;DHT22;1858;48.716;9.648;2023-04-24T09:56:11;19.20;99.90
3684;DHT22;1858;48.716;9.648;2023-04-24T09:58:41;19.30;99.90
3684;DHT22;1858;48.716;9.648;2023-04-24T10:01:10;19.20;99.90
3684;DHT22;1858;48.716;9.648;2023-04-24T10:03:59;18.90;99.90
3684;DHT22;1858;48.716;9.648;2023-04-24T10:06:34;18.60;99.90
3684;DHT22;1858;48.716;9.648;2023-04-24T10:09:14;18.10;99.90
3684;DHT22;1858;48.716;9.648;2023-04-24T10:11:43;19.00;99.90
3684;DHT22;1858;48.716;9.648;2023-04-24T10:14:21;19.80;99.90
3684;DHT22;1858;48.716;9.648;2023-04-24T10:16:57;20.40;99.90
3684;DHT22;1858;48.716;9.648;2023-04-24T10:19:24;20.90;99.90
3684;DHT22;1858;48.716;9.648;2023-04-24T10:21:54;20.30;99.90
3684;DHT22;1858;48.716;9.648;2023-04-24T10:24:23;19.80;99.90
3684;DHT22;1858;48.716;9.648;2023-04-24T10:26:54;18.90;99.90
3684;DHT22;1858;48.716;9.648;2023-04-24T10:29:27;18.80;99.90
3684;DHT22;1858;48.716;9.648;2023-04-24T10:32:19;19.60;99.90
3684;DHT22;1858;48.716;9.648;2023-04-24T10:34:50;20.50;99.90
3684;DHT22;1858;48.716;9.648;2023-04-24T10:37:19;21.40;99.90
3684;DHT22;1858;48.716;9.648;2023-04-24T10:39:58;22.00;99.90
3684;DHT22;1858;48.716;9.648;2023-04-24T10:42:28;23.00;89.70
3684;DHT22;1858;48.716;9.648;2023-04-24T10:44:56;23.10;88.30
3684;DHT22;1858;48.716;9.648;2023-04-24T10:47:27;22.10;70.00
3684;DHT22;1858;48.716;9.648;2023-04-24T10:50:06;20.90;83.10
3684;DHT22;1858;48.716;9.648;2023-04-24T10:52:50;19.80;99.80
3684;DHT22;1858;48.716;9.648;2023-04-24T10:55:42;19.10;99.90
3684;DHT22;1858;48.716;9.648;2023-04-24T10:58:41;18.80;99.90
3684;DHT22;1858;48.716;9.648;2023-04-24T11:01:06;19.10;99.90
3684;DHT22;1858;48.716;9.648;2023-04-24T11:03:35;19.70;99.90
3684;DHT22;1858;48.716;9.648;2023-04-24T11:06:06;20.10;99.90
3684;DHT22;1858;48.716;9.648;2023-04-24T11:11:18;20.50;99.90
3684;DHT22;1858;48.716;9.648;2023-04-24T11:19:49;20.60;92.50
3684;DHT22;1858;48.716;9.648;2023-04-24T11:25:09;20.00;99.90
3684;DHT22;1858;48.716;9.648;2023-04-24T11:28:08;19.70;99.90
3684;DHT22;1858;48.716;9.648;2023-04-24T11:30:35;19.30;99.90
3684;DHT22;1858;48.716;9.648;2023-04-24T11:33:10;19.20;99.90
3684;DHT22;1858;48.716;9.648;2023-04-24T11:35:40;18.70;99.90
3684;DHT22;1858;48.716;9.648;2023-04-24T11:38:13;18.40;99.90
3684;DHT22;1858;48.716;9.648;2023-04-24T11:40:44;18.10;99.90
3684;DHT22;1858;48.716;9.648;2023-04-24T11:43:30;17.90;99.90
3684;DHT22;1858;48.716;9.648;2023-04-24T11:48:36;17.20;99.90
3684;DHT22;1858;48.716;9.648;2023-04-24T11:51:38;16.90;99.90
3684;DHT22;1858;48.716;9.648;2023-04-24T11:54:30;16.80;99.90
3684;DHT22;1858;48.716;9.648;2023-04-24T11:59:53;16.40;99.90
3684;DHT22;1858;48.716;9.648;2023-04-24T12:02:32;16.20;99.90
3684;DHT22;1858;48.716;9.648;2023-04-24T12:05:26;15.90;99.90
3684;DHT22;1858;48.716;9.648;2023-04-24T12:07:55;15.60;99.90
3684;DHT22;1858;48.716;9.648;2023-04-24T12:10:31;15.30;99.90
3684;DHT22;1858;48.716;9.648;2023-04-24T12:12:58;15.30;99.90
3684;DHT22;1858;48.716;9.648;2023-04-24T12:15:39;15.20;99.90
3684;DHT22;1858;48.716;9.648;2023-04-24T12:18:05;15.40;99.90
3684;DHT22;1858;48.716;9.648;2023-04-24T12:20:36;15.60;99.90
3684;DHT22;1858;48.716;9.648;2023-04-24T12:23:04;15.80;99.90
3684;DHT22;1858;48.716;9.648;2023-04-24T12:25:35;16.00;99.90
3684;DHT22;1858;48.716;9.648;2023-04-24T12:28:11;16.30;99.90
3684;DHT22;1858;48.716;9.648;2023-04-24T12:30:52;16.50;99.90
3684;DHT22;1858;48.716;9.648;2023-04-24T12:33:33;16.40;99.90
3684;DHT22;1858;48.716;9.648;2023-04-24T12:36:14;16.20;99.90
3684;DHT22;1858;48.716;9.648;2023-04-24T12:38:44;15.90;99.90
3684;DHT22;1858;48.716;9.648;2023-04-24T12:41:14;15.80;99.90
3684;DHT22;1858;48.716;9.648;2023-04-24T12:43:57;15.70;99.90
3684;DHT22;1858;48.716;9.648;2023-04-24T12:47:08;15.70;99.90
3684;DHT22;1858;48.716;9.648;2023-04-24T12:49:38;15.70;99.90
3684;DHT22;1858;48.716;9.648;2023-04-24T12:52:15;15.80;99.90
3684;DHT22;1858;48.716;9.648;2023-04-24T12:54:46;15.70;99.90
3684;DHT22;1858;48.716;9.648;2023-04-24T12:57:15;15.80;99.90
3684;DHT22;1858;48.716;9.648;2023-04-24T12:59:49;16.00;99.90
3684;DHT22;1858;48.716;9.648;2023-04-24T13:02:20;15.90;99.90
3684;DHT22;1858;48.716;9.648;2023-04-24T13:04:53;15.90;99.90
3684;DHT22;1858;48.716;9.648;2023-04-24T13:07:25;15.90;99.90
3684;DHT22;1858;48.716;9.648;2023-04-24T13:09:55;15.80;99.90
3684;DHT22;1858;48.716;9.648;2023-04-24T13:12:39;15.50;99.90
3684;DHT22;1858;48.716;9.648;2023-04-24T13:15:37;15.30;99.90
3684;DHT22;1858;48.716;9.648;2023-04-24T13:18:14;15.20;99.90
3684;DHT22;1858;48.716;9.648;2023-04-24T13:20:49;15.30;99.90
3684;DHT22;1858;48.716;9.648;2023-04-24T13:23:17;15.40;99.90
3684;DHT22;1858;48.716;9.648;2023-04-24T13:25:46;15.50;99.90
3684;DHT22;1858;48.716;9.648;2023-04-24T13:28:14;15.60;99.90
3684;DHT22;1858;48.716;9.648;2023-04-24T13:30:43;15.60;99.90
3684;DHT22;1858;48.716;9.648;2023-04-24T13:33:12;15.50;99.90
3684;DHT22;1858;48.716;9.648;2023-04-24T13:35:40;15.30;99.90
3684;DHT22;1858;48.716;9.648;2023-04-24T13:38:11;15.20;99.90
3684;DHT22;1858;48.716;9.648;2023-04-24T13:40:38;15.10;99.90
3684;DHT22;1858;48.716;9.648;2023-04-24T13:43:07;14.90;99.90
3684;DHT22;1858;48.716;9.648;2023-04-24T13:45:36;14.60;99.90
3684;DHT22;1858;48.716;9.648;2023-04-24T13:48:05;14.70;99.90
3684;DHT22;1858;48.716;9.648;2023-04-24T13:50:33;14.70;99.90
3684;DHT22;1858;48.716;9.648;2023-04-24T13:53:05;14.60;99.90
3684;DHT22;1858;48.716;9.648;2023-04-24T13:55:33;14.70;99.90
3684;DHT22;1858;48.716;9.648;2023-04-24T13:58:01;14.90;99.90
3684;DHT22;1858;48.716;9.648;2023-04-24T14:00:30;14.80;99.90
3684;DHT22;1858;48.716;9.648;2023-04-24T14:02:59;14.80;99.90
3684;DHT22;1858;48.716;9.648;2023-04-24T14:05:27;14.70;99.90
3684;DHT22;1858;48.716;9.648;2023-04-24T14:07:56;14.70;99.90
3684;DHT22;1858;48.716;9.648;2023-04-24T14:10:24;15.00;99.90
3684;DHT22;1858;48.716;9.648;2023-04-24T14:12:54;15.40;99.90
3684;DHT22;1858;48.716;9.648;2023-04-24T14:15:22;15.60;99.90
3684;DHT22;1858;48.716;9.648;2023-04-24T14:17:51;15.70;99.90
3684;DHT22;1858;48.716;9.648;2023-04-24T14:20:19;15.60;99.90
3684;DHT22;1858;48.716;9.648;2023-04-24T14:22:47;15.60;99.90
3684;DHT22;1858;48.716;9.648;2023-04-24T14:25:16;15.60;99.90
3684;DHT22;1858;48.716;9.648;2023-04-24T14:27:44;15.30;99.90
3684;DHT22;1858;48.716;9.648;2023-04-24T14:30:14;14.90;99.90
3684;DHT22;1858;48.716;9.648;2023-04-24T14:32:43;14.60;99.90
3684;DHT22;1858;48.716;9.648;2023-04-24T14:35:13;14.40;99.90
3684;DHT22;1858;48.716;9.648;2023-04-24T14:37:42;14.20;99.90
3684;DHT22;1858;48.716;9.648;2023-04-24T14:40:11;14.20;99.90
3684;DHT22;1858;48.716;9.648;2023-04-24T14:42:39;13.90;99.90
3684;DHT22;1858;48.716;9.648;2023-04-24T14:45:08;13.90;99.90
3684;DHT22;1858;48.716;9.648;2023-04-24T14:47:37;14.00;99.90
3684;DHT22;1858;48.716;9.648;2023-04-24T14:50:06;14.00;99.90
3684;DHT22;1858;48.716;9.648;2023-04-24T14:52:37;14.00;99.90
3684;DHT22;1858;48.716;9.648;2023-04-24T14:55:05;14.20;99.90
3684;DHT22;1858;48.716;9.648;2023-04-24T14:57:42;14.50;99.90
3684;DHT22;1858;48.716;9.648;2023-04-24T15:00:07;14.80;99.90
3684;DHT22;1858;48.716;9.648;2023-04-24T15:02:37;15.00;99.90
3684;DHT22;1858;48.716;9.648;2023-04-24T15:05:12;15.10;99.90
3684;DHT22;1858;48.716;9.648;2023-04-24T15:07:38;15.30;99.90
3684;DHT22;1858;48.716;9.648;2023-04-24T15:10:09;15.20;99.90
3684;DHT22;1858;48.716;9.648;2023-04-24T15:12:37;15.10;99.90
3684;DHT22;1858;48.716;9.648;2023-04-24T15:15:07;14.90;99.90
3684;DHT22;1858;48.716;9.648;2023-04-24T15:17:35;14.80;99.90
3684;DHT22;1858;48.716;9.648;2023-04-24T15:20:05;14.60;99.90
3684;DHT22;1858;48.716;9.648;2023-04-24T15:22:37;14.30;99.90
3684;DHT22;1858;48.716;9.648;2023-04-24T15:25:04;14.30;99.90
3684;DHT22;1858;48.716;9.648;2023-04-24T15:34:21;14.60;99.90
3684;DHT22;1858;48.716;9.648;2023-04-24T15:36:49;14.70;99.90
3684;DHT22;1858;48.716;9.648;2023-04-24T15:39:23;14.60;99.90
3684;DHT22;1858;48.716;9.648;2023-04-24T15:41:52;14.60;99.90
3684;DHT22;1858;48.716;9.648;2023-04-24T15:44:25;14.50;99.90
3684;DHT22;1858;48.716;9.648;2023-04-24T15:46:53;14.60;99.90
3684;DHT22;1858;48.716;9.648;2023-04-24T15:49:24;14.50;99.90
3684;DHT22;1858;48.716;9.648;2023-04-24T15:51:52;14.40;99.90
3684;DHT22;1858;48.716;9.648;2023-04-24T15:54:21;14.30;99.90
3684;DHT22;1858;48.716;9.648;2023-04-24T15:56:54;14.00;99.90
3684;DHT22;1858;48.716;9.648;2023-04-24T15:59:22;13.90;99.90
3684;DHT22;1858;48.716;9.648;2023-04-24T16:01:51;14.00;99.90
3684;DHT22;1858;48.716;9.648;2023-04-24T16:04:20;14.00;99.90
3684;DHT22;1858;48.716;9.648;2023-04-24T16:06:49;14.20;99.90
3684;DHT22;1858;48.716;9.648;2023-04-24T16:09:19;14.30;99.90
3684;DHT22;1858;48.716;9.648;2023-04-24T16:11:48;14.40;99.90
3684;DHT22;1858;48.716;9.648;2023-04-24T16:14:20;14.30;99.90
3684;DHT22;1858;48.716;9.648;2023-04-24T16:16:52;14.40;99.90
3684;DHT22;1858;48.716;9.648;2023-04-24T16:19:22;14.40;99.90
3684;DHT22;1858;48.716;9.648;2023-04-24T16:21:50;14.40;99.90
3684;DHT22;1858;48.716;9.648;2023-04-24T16:24:21;14.50;99.90
3684;DHT22;1858;48.716;9.648;2023-04-24T16:26:50;14.50;99.90
3684;DHT22;1858;48.716;9.648;2023-04-24T16:29:19;14.50;99.90
3684;DHT22;1858;48.716;9.648;2023-04-24T16:31:48;14.40;99.90
3684;DHT22;1858;48.716;9.648;2023-04-24T16:34:16;14.30;99.90
3684;DHT22;1858;48.716;9.648;2023-04-24T16:36:45;14.30;99.90
3684;DHT22;1858;48.716;9.648;2023-04-24T16:39:13;14.30;99.90
3684;DHT22;1858;48.716;9.648;2023-04-24T16:41:42;14.30;99.90
3684;DHT22;1858;48.716;9.648;2023-04-24T16:44:10;14.40;99.90
3684;DHT22;1858;48.716;9.648;2023-04-24T16:46:40;14.40;99.90
3684;DHT22;1858;48.716;9.648;2023-04-24T16:49:08;14.40;99.90
3684;DHT22;1858;48.716;9.648;2023-04-24T17:01:43;14.10;99.90
3684;DHT22;1858;48.716;9.648;2023-04-24T17:10:56;13.40;99.90
3684;DHT22;1858;48.716;9.648;2023-04-24T17:13:24;13.20;99.90
3684;DHT22;1858;48.716;9.648;2023-04-24T17:15:53;13.10;99.90
3684;DHT22;1858;48.716;9.648;2023-04-24T17:18:21;13.00;99.90
3684;DHT22;1858;48.716;9.648;2023-04-24T17:20:50;12.90;99.90
3684;DHT22;1858;48.716;9.648;2023-04-24T17:23:19;12.90;99.90
3684;DHT22;1858;48.716;9.648;2023-04-24T17:25:49;12.70;99.90